Time;durP1;ratioP1;P1;durP2;ratioP2;P2;SDS_P1;SDS_P2;PMS_P1;PMS_P2;Temp;Humidity;BMP_temperature;BMP_pressure;BME280_temperature;BME280_humidity;BME280_pressure;Samples;Min_cycle;Max_cycle;Signal;HPM_P1;HPM_P2
2024/03/12 00:00:37;;;;;;;5.88;4.70;;;;;;;;;;5029909;28;20033;-55
2024/03/12 00:03:06;;;;;;;5.70;4.65;;;;;;;;;;5020507;28;20038;-62
2024/03/12 00:05:32;;;;;;;5.55;4.57;;;;;;;;;;5026450;28;20038;-63
2024/03/12 00:07:58;;;;;;;5.45;4.55;;;;;;;;;;5025805;28;20056;-54
2024/03/12 00:10:24;;;;;;;5.07;4.50;;;;;;;;;;5026179;28;20056;-57
2024/03/12 00:12:51;;;;;;;5.85;4.95;;;;;;;;;;5030095;28;20038;-55
2024/03/12 00:15:17;;;;;;;6.25;4.72;;;;;;;;;;5025955;28;20075;-71
2024/03/12 00:17:43;;;;;;;5.50;4.57;;;;;;;;;;5022414;28;20037;-57
2024/03/12 00:20:17;;;;;;;5.22;4.22;;;;;;;;;;5025174;28;20037;-75
2024/03/12 00:22:49;;;;;;;5.95;4.57;;;;;;;;;;5032704;28;20822;-68
2024/03/12 00:25:19;;;;;;;5.15;4.65;;;;;;;;;;5026655;28;20477;-65
2024/03/12 00:27:44;;;;;;;;;;;;;;;;;;5036486;28;20046;-71
2024/03/12 00:30:10;;;;;;;4.87;4.37;;;;;;;;;;5025422;28;20685;-73
2024/03/12 00:32:39;;;;;;;5.63;4.47;;;;;;;;;;5021111;28;20061;-65
2024/03/12 00:35:05;;;;;;;5.45;4.38;;;;;;;;;;5024951;28;20494;-61
2024/03/12 00:37:30;;;;;;;6.05;4.47;;;;;;;;;;5026535;28;20053;-65
2024/03/12 00:39:55;;;;;;;4.90;4.20;;;;;;;;;;5035496;28;20033;-74
2024/03/12 00:42:22;;;;;;;6.00;5.00;;;;;;;;;;5025235;28;20049;-67
2024/03/12 00:44:48;;;;;;;6.03;4.85;;;;;;;;;;5038456;28;20174;-73
2024/03/12 00:47:14;;;;;;;6.00;4.60;;;;;;;;;;5029400;28;20124;-78
2024/03/12 00:49:39;;;;;;;5.68;4.70;;;;;;;;;;5025496;28;20088;-69
2024/03/12 00:52:05;;;;;;;5.95;4.57;;;;;;;;;;5036683;28;20227;-62
2024/03/12 00:54:33;;;;;;;5.72;4.40;;;;;;;;;;5025303;28;20576;-67
2024/03/12 00:56:58;;;;;;;5.38;4.38;;;;;;;;;;5015783;28;20041;-71
2024/03/12 00:59:24;;;;;;;5.82;4.45;;;;;;;;;;5011923;28;20227;-55
2024/03/12 01:01:49;;;;;;;6.05;4.30;;;;;;;;;;5011431;28;20046;-56
2024/03/12 01:04:16;;;;;;;5.00;4.47;;;;;;;;;;5018327;28;20055;-55
2024/03/12 01:06:44;;;;;;;6.47;4.43;;;;;;;;;;5039391;28;20036;-55
2024/03/12 01:09:10;;;;;;;4.50;4.00;;;;;;;;;;5023085;28;20030;-54
2024/03/12 01:11:37;;;;;;;5.47;4.72;;;;;;;;;;5040462;28;20191;-67
2024/03/12 01:14:05;;;;;;;4.78;4.05;;;;;;;;;;5028540;28;20528;-60
2024/03/12 01:16:31;;;;;;;6.07;4.60;;;;;;;;;;5018332;28;20037;-59
2024/03/12 01:18:56;;;;;;;5.53;4.15;;;;;;;;;;5026065;28;20412;-67
2024/03/12 01:21:22;;;;;;;5.53;4.38;;;;;;;;;;5028207;28;20097;-77
2024/03/12 01:23:48;;;;;;;6.18;4.43;;;;;;;;;;5032142;28;20030;-72
2024/03/12 01:26:15;;;;;;;4.82;4.07;;;;;;;;;;5052970;28;20033;-77
2024/03/12 01:28:41;;;;;;;4.80;4.07;;;;;;;;;;5042095;28;20029;-78
2024/03/12 01:31:06;;;;;;;4.82;4.05;;;;;;;;;;5035448;28;20124;-74
2024/03/12 01:33:31;;;;;;;4.80;3.85;;;;;;;;;;5029165;28;20456;-71
2024/03/12 01:36:05;;;;;;;5.25;4.70;;;;;;;;;;5025824;28;20113;-55
2024/03/12 01:38:34;;;;;;;6.00;4.50;;;;;;;;;;5041076;28;20112;-55
2024/03/12 01:41:01;;;;;;;5.57;4.30;;;;;;;;;;5022514;28;20436;-62
2024/03/12 01:43:27;;;;;;;4.93;4.10;;;;;;;;;;5032471;28;20196;-54
2024/03/12 01:45:53;;;;;;;5.30;4.20;;;;;;;;;;5007512;28;20131;-61
2024/03/12 01:48:18;;;;;;;5.13;4.20;;;;;;;;;;5022448;28;20038;-55
2024/03/12 01:50:44;;;;;;;5.00;4.20;;;;;;;;;;5022692;28;20033;-54
2024/03/12 01:53:10;;;;;;;5.95;4.25;;;;;;;;;;5026893;28;20033;-54
2024/03/12 01:55:41;;;;;;;5.32;3.90;;;;;;;;;;5024446;28;20037;-54
2024/03/12 01:58:07;;;;;;;5.07;4.25;;;;;;;;;;5024400;28;20045;-55
2024/03/12 02:00:33;;;;;;;5.28;4.40;;;;;;;;;;5027154;28;20024;-55
2024/03/12 02:02:59;;;;;;;4.15;3.58;;;;;;;;;;5026163;28;20872;-54
2024/03/12 02:05:24;;;;;;;5.05;3.67;;;;;;;;;;5028824;28;20022;-60
2024/03/12 02:07:50;;;;;;;4.20;3.72;;;;;;;;;;5039656;28;20394;-62
2024/03/12 02:10:16;;;;;;;5.00;4.00;;;;;;;;;;5026865;28;20017;-58
2024/03/12 02:12:41;;;;;;;5.40;4.15;;;;;;;;;;5027126;28;20301;-55
2024/03/12 02:15:08;;;;;;;4.93;3.92;;;;;;;;;;5026693;28;20025;-55
2024/03/12 02:17:33;;;;;;;4.45;3.65;;;;;;;;;;5026277;28;20026;-70
2024/03/12 02:19:59;;;;;;;4.57;3.95;;;;;;;;;;5026882;28;20022;-58
2024/03/12 02:22:25;;;;;;;4.57;4.07;;;;;;;;;;5026934;28;20095;-58
2024/03/12 02:24:51;;;;;;;4.25;3.78;;;;;;;;;;5031332;28;20028;-54
2024/03/12 02:27:19;;;;;;;4.18;3.70;;;;;;;;;;5042527;28;20040;-56
2024/03/12 02:29:45;;;;;;;4.57;3.75;;;;;;;;;;5027491;28;20091;-55
2024/03/12 02:32:10;;;;;;;4.68;3.63;;;;;;;;;;5027107;28;20026;-55
2024/03/12 02:34:36;;;;;;;4.38;3.60;;;;;;;;;;5025244;28;20489;-56
2024/03/12 02:37:01;;;;;;;5.03;3.97;;;;;;;;;;5028059;28;20148;-54
2024/03/12 02:39:27;;;;;;;4.18;3.33;;;;;;;;;;5027376;28;20806;-55
2024/03/12 02:41:52;;;;;;;4.32;3.40;;;;;;;;;;5026940;28;20030;-59
2024/03/12 02:44:17;;;;;;;4.20;3.78;;;;;;;;;;5027649;28;20036;-58
2024/03/12 02:46:43;;;;;;;3.75;3.35;;;;;;;;;;5046621;28;20393;-59
2024/03/12 02:49:10;;;;;;;4.45;3.42;;;;;;;;;;5026308;28;20120;-55
2024/03/12 02:51:35;;;;;;;4.20;3.50;;;;;;;;;;5030686;28;20096;-60
2024/03/12 02:54:04;;;;;;;4.07;3.50;;;;;;;;;;5029702;28;20045;-56
2024/03/12 02:56:31;;;;;;;4.20;3.35;;;;;;;;;;5030259;28;20033;-55
2024/03/12 02:58:57;;;;;;;4.10;3.35;;;;;;;;;;5028721;28;20121;-65
2024/03/12 03:01:22;;;;;;;3.80;3.20;;;;;;;;;;5026755;28;20188;-59
2024/03/12 03:03:47;;;;;;;4.43;3.38;;;;;;;;;;5025722;28;20041;-55
2024/03/12 03:06:13;;;;;;;3.97;3.17;;;;;;;;;;5025720;28;20139;-55
2024/03/12 03:08:38;;;;;;;3.92;3.30;;;;;;;;;;5026524;28;20556;-54
2024/03/12 03:11:03;;;;;;;3.78;3.28;;;;;;;;;;5029584;28;20045;-55
2024/03/12 03:13:29;;;;;;;3.72;3.17;;;;;;;;;;5026594;28;20057;-55
2024/03/12 03:15:54;;;;;;;3.83;3.00;;;;;;;;;;5025663;28;20038;-55
2024/03/12 03:18:19;;;;;;;4.45;3.63;;;;;;;;;;5033905;28;20041;-59
2024/03/12 03:20:44;;;;;;;3.92;3.25;;;;;;;;;;5026460;28;20467;-54
2024/03/12 03:23:10;;;;;;;3.85;3.17;;;;;;;;;;5026223;28;20049;-60
2024/03/12 03:25:35;;;;;;;4.07;3.30;;;;;;;;;;5030550;28;20033;-56
2024/03/12 03:28:00;;;;;;;3.35;2.90;;;;;;;;;;5046306;28;20025;-59
2024/03/12 03:30:26;;;;;;;3.92;3.10;;;;;;;;;;5034893;28;20057;-55
2024/03/12 03:32:51;;;;;;;3.50;3.05;;;;;;;;;;5031021;28;20048;-63
2024/03/12 03:35:17;;;;;;;4.05;3.22;;;;;;;;;;5030979;28;20527;-54
2024/03/12 03:37:43;;;;;;;3.80;2.92;;;;;;;;;;5026301;28;20033;-55
2024/03/12 03:40:17;;;;;;;3.95;3.38;;;;;;;;;;5025590;28;20053;-59
2024/03/12 03:42:42;;;;;;;3.90;2.85;;;;;;;;;;5025940;28;20033;-55
2024/03/12 03:45:08;;;;;;;3.85;3.10;;;;;;;;;;5031741;28;20542;-54
2024/03/12 03:47:36;;;;;;;3.47;2.88;;;;;;;;;;5036632;28;20053;-54
2024/03/12 03:50:03;;;;;;;3.47;2.88;;;;;;;;;;5025606;28;20743;-59
2024/03/12 03:52:28;;;;;;;4.30;3.28;;;;;;;;;;5025481;28;20107;-61
2024/03/12 03:54:53;;;;;;;3.80;2.90;;;;;;;;;;5025425;28;20038;-55
2024/03/12 03:57:19;;;;;;;3.47;2.95;;;;;;;;;;5025756;28;20623;-57
2024/03/12 03:59:46;;;;;;;3.90;2.80;;;;;;;;;;5030550;28;20029;-63
2024/03/12 04:02:11;;;;;;;3.70;3.22;;;;;;;;;;5025191;28;20068;-54
2024/03/12 04:04:36;;;;;;;3.50;2.60;;;;;;;;;;5025502;28;20061;-55
2024/03/12 04:07:03;;;;;;;3.90;3.00;;;;;;;;;;5024990;28;20030;-54
2024/03/12 04:09:30;;;;;;;3.38;2.92;;;;;;;;;;5033405;28;20047;-61
2024/03/12 04:11:55;;;;;;;3.90;2.65;;;;;;;;;;5037771;28;20037;-58
2024/03/12 04:14:20;;;;;;;3.00;2.55;;;;;;;;;;5025174;28;20575;-55
2024/03/12 04:16:46;;;;;;;3.47;2.83;;;;;;;;;;5022356;28;20041;-55
2024/03/12 04:19:11;;;;;;;3.38;2.70;;;;;;;;;;5033791;28;20029;-54
2024/03/12 04:21:36;;;;;;;3.10;2.70;;;;;;;;;;5025267;28;20030;-60
2024/03/12 04:24:02;;;;;;;3.22;2.75;;;;;;;;;;5031649;28;20402;-54
2024/03/12 04:26:28;;;;;;;3.30;2.67;;;;;;;;;;5023975;28;20434;-54
2024/03/12 04:28:54;;;;;;;3.13;2.60;;;;;;;;;;5024118;28;20041;-63
2024/03/12 04:31:20;;;;;;;3.30;2.78;;;;;;;;;;5028110;28;20045;-62
2024/03/12 04:33:45;;;;;;;3.33;2.67;;;;;;;;;;5024329;28;20120;-54
2024/03/12 04:36:13;;;;;;;3.85;2.65;;;;;;;;;;5032706;28;20572;-55
2024/03/12 04:38:39;;;;;;;4.13;2.78;;;;;;;;;;5020123;28;20037;-56
2024/03/12 04:41:04;;;;;;;3.63;2.65;;;;;;;;;;5003705;28;20410;-58
2024/03/12 04:43:29;;;;;;;3.90;2.60;;;;;;;;;;5005185;28;20068;-60
2024/03/12 04:45:54;;;;;;;3.25;2.50;;;;;;;;;;5005771;28;20049;-57
2024/03/12 04:48:21;;;;;;;3.05;2.25;;;;;;;;;;5005886;28;20034;-55
2024/03/12 04:50:46;;;;;;;3.72;2.38;;;;;;;;;;5020175;28;20556;-55
2024/03/12 04:53:12;;;;;;;2.80;2.10;;;;;;;;;;5020273;28;20069;-55
2024/03/12 04:55:39;;;;;;;3.65;2.22;;;;;;;;;;5014675;28;20045;-58
2024/03/12 04:58:04;;;;;;;4.70;2.47;;;;;;;;;;5015345;28;20120;-60
2024/03/12 05:00:30;;;;;;;3.97;2.13;;;;;;;;;;5011105;28;20116;-55
2024/03/12 05:02:55;;;;;;;3.00;2.20;;;;;;;;;;5011773;28;20101;-55
2024/03/12 05:05:21;;;;;;;4.15;2.30;;;;;;;;;;5010867;28;20515;-61
2024/03/12 05:07:50;;;;;;;2.72;2.22;;;;;;;;;;5012049;28;20046;-55
2024/03/12 05:10:15;;;;;;;3.28;2.03;;;;;;;;;;5010395;28;20045;-55
2024/03/12 05:12:41;;;;;;;2.75;2.00;;;;;;;;;;5012069;28;20457;-64
2024/03/12 05:15:09;;;;;;;2.97;1.83;;;;;;;;;;5011162;28;20409;-58
2024/03/12 05:17:45;;;;;;;3.40;2.05;;;;;;;;;;5008863;28;20045;-57
2024/03/12 05:20:14;;;;;;;3.40;2.10;;;;;;;;;;5010540;28;20026;-60
2024/03/12 05:22:39;;;;;;;3.05;1.95;;;;;;;;;;5010188;28;20337;-61
2024/03/12 05:25:09;;;;;;;2.10;1.80;;;;;;;;;;5011404;28;20576;-56
2024/03/12 05:27:37;;;;;;;3.08;1.95;;;;;;;;;;5011489;28;20033;-64
2024/03/12 05:30:10;;;;;;;2.70;1.65;;;;;;;;;;5010847;28;20034;-64
2024/03/12 05:32:37;;;;;;;3.90;2.00;;;;;;;;;;5010372;28;20049;-55
2024/03/12 05:35:04;;;;;;;2.55;1.75;;;;;;;;;;5016345;28;20114;-64
2024/03/12 05:37:40;;;;;;;3.10;2.00;;;;;;;;;;5014302;28;20428;-58
2024/03/12 05:40:18;;;;;;;2.05;1.83;;;;;;;;;;5013865;28;20038;-58
2024/03/12 05:48:14;;;;;;;2.20;1.77;;;;;;;;;;5012764;28;20784;-62
2024/03/12 05:50:40;;;;;;;6.78;2.00;;;;;;;;;;5015939;28;20050;-56
2024/03/12 05:53:06;;;;;;;2.92;1.83;;;;;;;;;;5014909;28;21667;-54
2024/03/12 05:55:31;;;;;;;2.33;1.50;;;;;;;;;;5015546;28;20556;-68
2024/03/12 05:57:57;;;;;;;6.80;4.75;;;;;;;;;;5015261;28;20037;-54
2024/03/12 06:00:23;;;;;;;4.50;2.80;;;;;;;;;;5015286;28;20041;-58
2024/03/12 06:02:49;;;;;;;2.47;1.85;;;;;;;;;;5013488;28;20057;-55
2024/03/12 06:05:15;;;;;;;2.33;1.70;;;;;;;;;;5014186;28;20052;-55
2024/03/12 06:07:41;;;;;;;2.40;1.70;;;;;;;;;;5014020;28;20058;-59
2024/03/12 06:10:07;;;;;;;3.25;1.83;;;;;;;;;;5014028;28;20473;-59
2024/03/12 06:12:32;;;;;;;3.22;1.75;;;;;;;;;;5014846;28;20046;-58
2024/03/12 06:14:58;;;;;;;11.00;4.22;;;;;;;;;;5015372;28;20103;-57
2024/03/12 06:17:24;;;;;;;6.82;4.15;;;;;;;;;;5013863;28;20052;-60
2024/03/12 06:19:49;;;;;;;9.73;5.80;;;;;;;;;;5015206;28;20037;-54
2024/03/12 06:22:14;;;;;;;9.82;3.97;;;;;;;;;;5014501;28;20036;-60
2024/03/12 06:24:40;;;;;;;5.57;2.55;;;;;;;;;;5015425;28;20064;-58
2024/03/12 06:27:07;;;;;;;3.08;2.30;;;;;;;;;;5013643;28;20060;-57
2024/03/12 06:29:32;;;;;;;2.90;1.83;;;;;;;;;;5014921;28;20022;-54
2024/03/12 06:31:59;;;;;;;3.88;1.95;;;;;;;;;;5014389;28;20429;-57
2024/03/12 06:34:27;;;;;;;2.65;1.65;;;;;;;;;;5014534;28;20091;-65
2024/03/12 06:36:57;;;;;;;3.00;1.85;;;;;;;;;;5011927;28;20038;-60
2024/03/12 06:39:23;;;;;;;3.47;1.52;;;;;;;;;;5014796;28;20042;-70
2024/03/12 06:41:49;;;;;;;7.93;1.90;;;;;;;;;;5017632;28;20030;-71
2024/03/12 06:44:17;;;;;;;3.95;1.63;;;;;;;;;;5018231;28;20127;-60
2024/03/12 06:46:44;;;;;;;5.82;1.75;;;;;;;;;;5010403;28;20045;-55
2024/03/12 06:49:12;;;;;;;3.20;1.75;;;;;;;;;;5012548;28;20034;-55
2024/03/12 06:51:37;;;;;;;3.05;1.33;;;;;;;;;;5015196;28;20045;-60
2024/03/12 06:54:03;;;;;;;2.85;1.58;;;;;;;;;;5013684;28;20509;-59
2024/03/12 06:56:31;;;;;;;2.58;1.58;;;;;;;;;;5012318;28;20426;-54
2024/03/12 06:58:56;;;;;;;2.38;1.35;;;;;;;;;;5010537;28;20056;-55
2024/03/12 07:01:22;;;;;;;2.60;1.40;;;;;;;;;;5012684;28;20144;-58
2024/03/12 07:03:49;;;;;;;2.85;1.45;;;;;;;;;;5014379;28;20126;-61
2024/03/12 07:06:14;;;;;;;3.47;1.50;;;;;;;;;;5013859;28;20045;-55
2024/03/12 07:08:41;;;;;;;2.67;1.42;;;;;;;;;;5014652;28;20041;-61
2024/03/12 07:11:07;;;;;;;3.22;1.63;;;;;;;;;;5014459;28;20194;-66
2024/03/12 07:13:33;;;;;;;2.63;1.70;;;;;;;;;;5014323;28;20138;-56
2024/03/12 07:16:00;;;;;;;3.35;1.67;;;;;;;;;;5011761;28;20173;-60
2024/03/12 07:18:25;;;;;;;2.28;1.42;;;;;;;;;;5013350;28;20152;-55
2024/03/12 07:20:52;;;;;;;2.25;1.40;;;;;;;;;;5014589;28;20098;-61
2024/03/12 07:23:17;;;;;;;4.63;1.50;;;;;;;;;;5013995;28;20033;-58
2024/03/12 07:25:43;;;;;;;3.30;1.85;;;;;;;;;;5012978;28;20401;-59
2024/03/12 07:28:08;;;;;;;3.30;1.50;;;;;;;;;;5013410;28;20049;-56
2024/03/12 07:30:33;;;;;;;2.10;1.25;;;;;;;;;;5014358;28;20168;-60
2024/03/12 07:32:59;;;;;;;3.78;1.65;;;;;;;;;;5014240;28;20112;-54
2024/03/12 07:35:24;;;;;;;2.65;1.50;;;;;;;;;;5013206;28;20042;-54
2024/03/12 07:37:49;;;;;;;3.70;1.48;;;;;;;;;;5012679;28;20030;-60
2024/03/12 07:40:15;;;;;;;2.15;1.40;;;;;;;;;;5012885;28;20034;-64
2024/03/12 07:42:42;;;;;;;2.67;1.30;;;;;;;;;;5013732;28;20029;-64
2024/03/12 07:45:11;;;;;;;3.10;1.55;;;;;;;;;;5013184;28;20524;-57
2024/03/12 07:47:36;;;;;;;2.40;1.40;;;;;;;;;;5013685;28;20029;-63
2024/03/12 07:50:02;;;;;;;2.38;1.52;;;;;;;;;;5013008;28;20501;-59
2024/03/12 07:52:28;;;;;;;2.65;1.50;;;;;;;;;;5012660;28;20045;-58
2024/03/12 07:54:53;;;;;;;4.53;1.60;;;;;;;;;;5013350;28;20057;-59
2024/03/12 07:57:19;;;;;;;1.63;1.10;;;;;;;;;;5012100;28;20747;-58
2024/03/12 07:59:44;;;;;;;2.95;1.15;;;;;;;;;;5015223;28;20580;-63
2024/03/12 08:02:13;;;;;;;2.67;1.35;;;;;;;;;;5011921;28;20064;-66
2024/03/12 08:04:42;;;;;;;1.65;1.23;;;;;;;;;;5013594;28;20513;-68
2024/03/12 08:07:09;;;;;;;2.97;1.27;;;;;;;;;;5013910;28;20084;-61
2024/03/12 08:09:34;;;;;;;3.88;1.42;;;;;;;;;;5013906;28;20038;-63
2024/03/12 08:11:59;;;;;;;2.53;1.45;;;;;;;;;;5018764;28;20051;-55
2024/03/12 08:14:25;;;;;;;2.80;1.30;;;;;;;;;;5025886;28;20194;-59
2024/03/12 08:16:50;;;;;;;1.98;1.30;;;;;;;;;;5031326;28;20521;-62
2024/03/12 08:19:15;;;;;;;3.50;1.85;;;;;;;;;;5041000;28;20044;-63
2024/03/12 08:21:41;;;;;;;2.05;1.38;;;;;;;;;;5033832;28;20034;-61
2024/03/12 08:24:07;;;;;;;2.47;1.30;;;;;;;;;;5025443;28;20038;-61
2024/03/12 08:26:33;;;;;;;2.97;1.35;;;;;;;;;;5041101;28;20059;-58
2024/03/12 08:28:58;;;;;;;1.83;1.20;;;;;;;;;;5045348;28;20033;-61
2024/03/12 08:31:29;;;;;;;2.60;1.63;;;;;;;;;;5040842;28;20095;-55
2024/03/12 08:33:54;;;;;;;2.85;1.40;;;;;;;;;;5025056;28;20032;-58
2024/03/12 08:36:21;;;;;;;3.28;1.33;;;;;;;;;;5037442;28;20037;-55
2024/03/12 08:38:47;;;;;;;1.73;1.10;;;;;;;;;;5025659;28;20038;-54
2024/03/12 08:41:12;;;;;;;2.78;1.30;;;;;;;;;;5034073;28;20107;-59
2024/03/12 08:43:38;;;;;;;2.60;1.60;;;;;;;;;;5025838;28;20069;-59
2024/03/12 08:46:05;;;;;;;2.83;1.25;;;;;;;;;;5042767;28;20057;-58
2024/03/12 08:48:32;;;;;;;2.45;1.20;;;;;;;;;;5045656;28;20045;-63
2024/03/12 08:50:58;;;;;;;1.75;1.30;;;;;;;;;;5045482;28;20392;-57
2024/03/12 08:53:23;;;;;;;2.67;1.50;;;;;;;;;;5036695;28;20071;-62
2024/03/12 08:55:49;;;;;;;2.80;1.50;;;;;;;;;;5026145;28;20033;-69
2024/03/12 08:58:14;;;;;;;3.08;1.30;;;;;;;;;;5043795;28;20056;-70
2024/03/12 09:00:40;;;;;;;3.28;1.50;;;;;;;;;;5041123;28;20029;-58
2024/03/12 09:03:06;;;;;;;2.47;1.20;;;;;;;;;;5024838;28;20030;-56
2024/03/12 09:05:31;;;;;;;1.98;1.20;;;;;;;;;;5044096;28;20025;-55
2024/03/12 09:07:56;;;;;;;2.03;1.20;;;;;;;;;;5045795;28;20041;-55
2024/03/12 09:10:22;;;;;;;2.25;1.20;;;;;;;;;;5027336;28;20034;-56
2024/03/12 09:12:47;;;;;;;2.75;1.17;;;;;;;;;;5043152;28;20049;-54
2024/03/12 09:15:13;;;;;;;2.67;1.33;;;;;;;;;;5030588;28;20022;-55
2024/03/12 09:17:38;;;;;;;2.13;1.30;;;;;;;;;;5029562;28;20065;-59
2024/03/12 09:20:10;;;;;;;2.25;1.33;;;;;;;;;;5047582;28;20025;-53
2024/03/12 09:22:35;;;;;;;1.70;1.10;;;;;;;;;;5013728;28;20213;-55
2024/03/12 09:25:01;;;;;;;2.50;1.17;;;;;;;;;;5029743;28;20053;-57
2024/03/12 09:27:26;;;;;;;1.58;1.10;;;;;;;;;;5049533;28;20033;-56
2024/03/12 09:29:52;;;;;;;1.88;1.20;;;;;;;;;;5040513;28;20040;-56
2024/03/12 09:32:17;;;;;;;2.80;1.30;;;;;;;;;;5029319;28;20602;-53
2024/03/12 09:34:43;;;;;;;3.05;1.40;;;;;;;;;;5028666;28;20041;-54
2024/03/12 09:37:09;;;;;;;1.30;0.90;;;;;;;;;;5029528;28;20034;-55
2024/03/12 09:39:36;;;;;;;1.67;1.15;;;;;;;;;;5028135;28;20108;-54
2024/03/12 09:42:06;;;;;;;1.40;1.00;;;;;;;;;;5027544;28;20042;-60
2024/03/12 09:44:32;;;;;;;1.80;1.27;;;;;;;;;;5029577;28;20036;-55
2024/03/12 09:46:58;;;;;;;1.92;1.20;;;;;;;;;;5048161;28;20028;-57
2024/03/12 09:49:23;;;;;;;1.85;1.20;;;;;;;;;;5047012;28;20638;-56
2024/03/12 09:51:50;;;;;;;2.40;1.45;;;;;;;;;;5047482;28;20697;-54
2024/03/12 09:54:16;;;;;;;1.80;1.30;;;;;;;;;;5032696;28;20128;-54
2024/03/12 09:56:42;;;;;;;1.95;1.30;;;;;;;;;;5029401;28;20026;-55
2024/03/12 09:59:08;;;;;;;2.00;1.40;;;;;;;;;;5046778;28;20013;-55
2024/03/12 10:01:34;;;;;;;1.75;1.00;;;;;;;;;;5035798;28;20029;-55
2024/03/12 10:03:59;;;;;;;2.17;1.20;;;;;;;;;;5028093;28;20014;-55
2024/03/12 10:06:25;;;;;;;1.73;1.25;;;;;;;;;;5029763;28;20102;-56
2024/03/12 10:08:56;;;;;;;2.00;1.20;;;;;;;;;;5043916;28;20076;-59
2024/03/12 10:11:21;;;;;;;1.77;1.15;;;;;;;;;;5029915;28;20026;-56
2024/03/12 10:13:56;;;;;;;1.33;1.02;;;;;;;;;;5037774;28;20064;-54
2024/03/12 10:16:24;;;;;;;1.67;1.05;;;;;;;;;;5027055;28;20033;-54
2024/03/12 10:19:04;;;;;;;2.25;1.25;;;;;;;;;;5032094;28;20041;-61
2024/03/12 10:21:29;;;;;;;2.03;1.25;;;;;;;;;;5036658;28;20061;-55
2024/03/12 10:23:59;;;;;;;1.50;1.10;;;;;;;;;;5027105;28;20067;-60
2024/03/12 10:26:25;;;;;;;1.37;1.07;;;;;;;;;;5031697;28;20041;-57
2024/03/12 10:28:50;;;;;;;2.70;0.93;;;;;;;;;;5046039;28;20280;-62
2024/03/12 10:31:19;;;;;;;2.05;1.40;;;;;;;;;;5046673;28;20058;-56
2024/03/12 10:33:48;;;;;;;1.80;0.93;;;;;;;;;;5038988;28;20048;-60
2024/03/12 10:36:13;;;;;;;2.78;1.40;;;;;;;;;;5026541;28;20326;-64
2024/03/12 10:38:39;;;;;;;2.10;1.30;;;;;;;;;;5034829;28;20033;-56
2024/03/12 10:41:13;;;;;;;1.67;1.00;;;;;;;;;;5032503;28;20580;-55
2024/03/12 10:43:39;;;;;;;2.05;1.20;;;;;;;;;;5013547;28;20128;-54
2024/03/12 10:46:05;;;;;;;1.88;1.30;;;;;;;;;;5014262;28;20037;-54
2024/03/12 10:48:31;;;;;;;2.03;1.17;;;;;;;;;;5013578;28;20116;-56
2024/03/12 10:50:57;;;;;;;1.30;1.02;;;;;;;;;;5024678;28;20113;-57
2024/03/12 10:53:24;;;;;;;1.55;1.20;;;;;;;;;;5031550;28;20041;-65
2024/03/12 10:55:50;;;;;;;1.77;1.13;;;;;;;;;;5025267;28;20579;-55
2024/03/12 10:58:15;;;;;;;1.25;1.00;;;;;;;;;;5038035;28;20040;-55
2024/03/12 11:00:41;;;;;;;2.15;1.10;;;;;;;;;;5041255;28;20080;-59
2024/03/12 11:03:08;;;;;;;1.58;1.00;;;;;;;;;;5026903;28;20022;-59
2024/03/12 11:05:33;;;;;;;2.30;1.10;;;;;;;;;;5027143;28;20523;-59
2024/03/12 11:07:59;;;;;;;1.67;0.93;;;;;;;;;;5025999;28;20030;-55
2024/03/12 11:10:26;;;;;;;2.10;1.20;;;;;;;;;;5025441;28;20067;-56
2024/03/12 11:12:54;;;;;;;1.60;1.10;;;;;;;;;;5038414;28;20065;-57
2024/03/12 11:15:19;;;;;;;2.05;1.17;;;;;;;;;;5028014;28;20095;-59
2024/03/12 11:17:51;;;;;;;1.48;0.98;;;;;;;;;;5038548;28;20041;-58
2024/03/12 11:20:19;;;;;;;1.63;1.20;;;;;;;;;;5045544;28;20424;-55
2024/03/12 11:22:44;;;;;;;1.73;1.17;;;;;;;;;;5026539;28;20033;-57
2024/03/12 11:25:14;;;;;;;1.38;1.05;;;;;;;;;;5025948;28;20087;-59
2024/03/12 11:27:41;;;;;;;;;;;;;;;;;;5027224;28;20520;-56
2024/03/12 11:30:18;;;;;;;1.60;1.17;;;;;;;;;;5040762;28;20434;-55
2024/03/12 11:32:43;;;;;;;1.50;0.93;;;;;;;;;;5045363;28;20502;-55
2024/03/12 11:35:09;;;;;;;1.48;0.95;;;;;;;;;;5029970;28;20026;-57
2024/03/12 11:37:35;;;;;;;1.55;1.02;;;;;;;;;;5025640;28;20068;-58
2024/03/12 11:40:19;;;;;;;1.95;1.42;;;;;;;;;;5025595;28;20087;-63
2024/03/12 11:42:45;;;;;;;1.30;0.90;;;;;;;;;;5024024;28;20098;-60
2024/03/12 11:45:31;;;;;;;1.60;1.10;;;;;;;;;;5024954;28;20483;-55
2024/03/12 11:47:56;;;;;;;1.40;0.90;;;;;;;;;;5026020;28;20167;-55
2024/03/12 11:50:32;;;;;;;1.13;0.85;;;;;;;;;;5024662;28;20108;-57
2024/03/12 11:53:09;;;;;;;1.33;1.00;;;;;;;;;;5025592;28;20041;-63
2024/03/12 11:55:54;;;;;;;2.63;1.23;;;;;;;;;;5027060;28;20044;-57
2024/03/12 11:58:20;;;;;;;1.30;0.98;;;;;;;;;;5033276;28;20040;-55
2024/03/12 12:00:50;;;;;;;1.65;1.00;;;;;;;;;;5040899;28;20410;-55
2024/03/12 12:03:16;;;;;;;1.30;1.00;;;;;;;;;;5025889;28;20041;-58
2024/03/12 12:05:41;;;;;;;2.15;0.93;;;;;;;;;;5025866;28;20026;-66
2024/03/12 12:08:08;;;;;;;1.50;1.10;;;;;;;;;;5025905;28;20030;-63
2024/03/12 12:10:33;;;;;;;1.52;0.90;;;;;;;;;;5023712;28;20036;-55
2024/03/12 12:12:58;;;;;;;0.93;0.73;;;;;;;;;;5035529;28;20678;-55
2024/03/12 12:15:26;;;;;;;1.30;0.90;;;;;;;;;;5041471;28;20060;-57
2024/03/12 12:18:07;;;;;;;1.35;1.00;;;;;;;;;;5018856;28;20037;-58
2024/03/12 12:20:32;;;;;;;1.20;1.00;;;;;;;;;;5024023;28;20041;-68
2024/03/12 12:22:58;;;;;;;1.45;1.00;;;;;;;;;;5037249;28;20025;-58
2024/03/12 12:25:27;;;;;;;1.58;1.10;;;;;;;;;;5033338;28;20544;-65
2024/03/12 12:27:53;;;;;;;1.45;1.02;;;;;;;;;;5032673;28;20436;-58
2024/03/12 12:30:20;;;;;;;1.38;0.80;;;;;;;;;;5045331;28;20033;-64
2024/03/12 12:32:46;;;;;;;1.10;0.90;;;;;;;;;;5043200;28;20051;-56
2024/03/12 12:35:11;;;;;;;1.30;0.90;;;;;;;;;;5043064;28;20074;-65
2024/03/12 12:37:37;;;;;;;1.42;0.90;;;;;;;;;;5025348;28;20044;-58
2024/03/12 12:40:07;;;;;;;1.15;0.82;;;;;;;;;;5013243;28;20045;-55
2024/03/12 12:42:33;;;;;;;1.67;1.00;;;;;;;;;;5023700;28;20116;-59
2024/03/12 12:45:04;;;;;;;1.35;1.10;;;;;;;;;;5027114;28;20103;-58
2024/03/12 12:47:30;;;;;;;1.98;1.10;;;;;;;;;;5029728;28;20037;-57
2024/03/12 12:49:58;;;;;;;2.38;1.15;;;;;;;;;;5015835;28;20520;-57
2024/03/12 12:52:24;;;;;;;1.45;1.10;;;;;;;;;;5019444;28;20080;-57
2024/03/12 12:54:55;;;;;;;1.23;0.90;;;;;;;;;;5012469;28;20088;-59
2024/03/12 12:57:21;;;;;;;2.65;1.00;;;;;;;;;;5017318;28;20531;-56
2024/03/12 12:59:47;;;;;;;1.40;0.90;;;;;;;;;;5017336;28;20041;-56
2024/03/12 13:02:16;;;;;;;3.13;0.90;;;;;;;;;;5017564;28;20421;-60
2024/03/12 13:04:43;;;;;;;1.42;1.05;;;;;;;;;;5018522;28;20472;-58
2024/03/12 13:07:11;;;;;;;3.45;1.20;;;;;;;;;;5025052;28;20033;-58
2024/03/12 13:09:36;;;;;;;2.25;1.20;;;;;;;;;;5024176;28;20038;-59
2024/03/12 13:12:02;;;;;;;3.63;1.27;;;;;;;;;;5024568;28;20521;-60
2024/03/12 13:14:27;;;;;;;1.83;1.05;;;;;;;;;;5025276;28;20114;-58
2024/03/12 13:16:53;;;;;;;1.52;0.93;;;;;;;;;;5015682;28;20053;-57
2024/03/12 13:19:18;;;;;;;2.60;1.00;;;;;;;;;;5021392;28;20029;-59
2024/03/12 13:21:44;;;;;;;1.17;0.85;;;;;;;;;;5023999;28;20037;-57
2024/03/12 13:24:10;;;;;;;1.30;1.02;;;;;;;;;;5028974;28;20121;-60
2024/03/12 13:26:35;;;;;;;1.30;0.90;;;;;;;;;;5003858;28;20502;-60
2024/03/12 13:29:00;;;;;;;4.85;1.20;;;;;;;;;;5014849;28;20556;-58
2024/03/12 13:31:26;;;;;;;2.60;1.25;;;;;;;;;;5035752;28;20095;-62
2024/03/12 13:33:53;;;;;;;2.28;1.25;;;;;;;;;;5024876;28;20045;-61
2024/03/12 13:36:21;;;;;;;2.40;1.10;;;;;;;;;;5025127;28;20037;-57
2024/03/12 13:38:47;;;;;;;1.58;0.95;;;;;;;;;;5044618;28;20037;-60
2024/03/12 13:41:12;;;;;;;1.95;0.90;;;;;;;;;;5036140;28;20576;-65
2024/03/12 13:43:37;;;;;;;1.10;0.88;;;;;;;;;;5023952;28;20116;-57
2024/03/12 13:46:06;;;;;;;2.25;0.90;;;;;;;;;;5027802;28;20030;-59
2024/03/12 13:48:32;;;;;;;1.92;0.90;;;;;;;;;;5018998;28;20033;-59
2024/03/12 13:50:58;;;;;;;1.38;1.00;;;;;;;;;;5042447;28;20029;-59
2024/03/12 13:53:26;;;;;;;2.25;1.05;;;;;;;;;;5016334;28;20424;-62
2024/03/12 13:55:53;;;;;;;1.15;0.90;;;;;;;;;;5030993;28;20409;-57
2024/03/12 13:58:19;;;;;;;2.22;1.20;;;;;;;;;;5034486;28;20102;-65
2024/03/12 14:00:44;;;;;;;1.30;1.00;;;;;;;;;;5033974;28;20120;-63
2024/03/12 14:03:10;;;;;;;1.80;1.10;;;;;;;;;;5032383;28;20104;-59
2024/03/12 14:05:35;;;;;;;2.17;1.10;;;;;;;;;;5028069;28;20019;-62
2024/03/12 14:08:01;;;;;;;0.93;0.70;;;;;;;;;;5034215;28;20018;-58
2024/03/12 14:10:26;;;;;;;2.13;1.20;;;;;;;;;;5047954;28;20493;-59
2024/03/12 14:12:52;;;;;;;1.80;1.00;;;;;;;;;;5037718;28;20021;-57
2024/03/12 14:15:18;;;;;;;2.03;1.00;;;;;;;;;;5028714;28;20484;-61
2024/03/12 14:17:43;;;;;;;3.05;0.95;;;;;;;;;;5028285;28;20021;-65
2024/03/12 14:20:14;;;;;;;1.20;0.73;;;;;;;;;;5048279;28;20013;-64
2024/03/12 14:22:39;;;;;;;2.08;0.98;;;;;;;;;;5027067;28;20022;-59
2024/03/12 14:25:07;;;;;;;1.90;0.85;;;;;;;;;;5025967;28;20453;-62
2024/03/12 14:27:34;;;;;;;1.60;1.00;;;;;;;;;;5027776;28;20041;-61
2024/03/12 14:30:01;;;;;;;1.50;0.90;;;;;;;;;;5027413;28;20031;-60
2024/03/12 14:32:26;;;;;;;1.73;1.08;;;;;;;;;;5019803;28;20121;-65
2024/03/12 14:34:52;;;;;;;1.35;0.80;;;;;;;;;;5028007;28;20759;-63
2024/03/12 14:37:17;;;;;;;1.63;1.00;;;;;;;;;;5025401;28;20037;-62
2024/03/12 14:39:43;;;;;;;1.50;0.95;;;;;;;;;;5031680;28;20040;-65
2024/03/12 14:42:08;;;;;;;1.58;0.82;;;;;;;;;;5028347;28;20038;-58
2024/03/12 14:44:34;;;;;;;1.50;1.00;;;;;;;;;;5024637;28;20048;-66